createdAt,value
2022-11-20T00:00:56.000Z,19.92
2022-11-20T00:03:23.988Z,20.75
2022-11-20T00:05:51.780Z,19.13
2022-11-20T00:08:19.404Z,16.70
2022-11-20T00:10:47.063Z,18.45
2022-11-20T00:13:14.679Z,14.68
2022-11-20T00:15:43.664Z,15.98
2022-11-20T00:18:11.291Z,17.67
2022-11-20T00:20:38.978Z,15.23
2022-11-20T00:23:07.873Z,18.52
2022-11-20T00:25:36.415Z,17.63
2022-11-20T00:28:04.151Z,17.92
2022-11-20T00:30:31.813Z,17.15
2022-11-20T00:33:00.845Z,15.32
2022-11-20T00:35:28.477Z,21.60
2022-11-20T00:37:56.225Z,18.92
2022-11-20T00:40:23.879Z,19.30
2022-11-20T00:42:51.536Z,20.25
2022-11-20T00:45:19.192Z,20.02
2022-11-20T00:47:46.836Z,18.13
2022-11-20T00:50:15.816Z,18.55
2022-11-20T00:52:43.504Z,16.70
2022-11-20T00:55:11.110Z,13.85
2022-11-20T00:57:38.781Z,15.65
2022-11-20T01:00:07.992Z,12.57
2022-11-20T01:02:35.597Z,17.70
2022-11-20T01:05:03.291Z,16.55
2022-11-20T01:07:32.367Z,21.48
2022-11-20T01:10:00.009Z,19.27
2022-11-20T01:12:27.619Z,19.42
2022-11-20T01:14:55.349Z,18.15
2022-11-20T01:17:23.071Z,13.65
2022-11-20T01:19:51.513Z,16.13
2022-11-20T01:22:19.171Z,19.23
2022-11-20T01:24:48.123Z,21.58
2022-11-20T01:27:15.817Z,17.63
2022-11-20T01:29:43.451Z,19.15
2022-11-20T01:32:11.100Z,19.38
2022-11-20T01:34:38.719Z,19.55
2022-11-20T01:37:06.413Z,19.13
2022-11-20T01:39:34.097Z,19.83
2022-11-20T01:42:20.746Z,18.77
2022-11-20T01:44:55.996Z,18.20
2022-11-20T01:47:29.155Z,16.75
2022-11-20T01:50:01.618Z,19.02
2022-11-20T01:52:33.545Z,16.58
2022-11-20T01:55:05.787Z,20.27
2022-11-20T01:57:36.856Z,15.27
2022-11-20T02:00:09.555Z,20.08
2022-11-20T02:02:39.608Z,17.60
2022-11-20T02:05:19.437Z,20.48
2022-11-20T02:07:48.460Z,19.17
2022-11-20T02:10:16.600Z,15.55
2022-11-20T02:13:03.426Z,15.93
2022-11-20T02:15:31.102Z,15.70
2022-11-20T02:17:58.945Z,20.48
2022-11-20T02:20:26.937Z,18.42
2022-11-20T02:22:59.886Z,19.45
2022-11-20T02:25:31.064Z,16.42
2022-11-20T02:27:58.856Z,17.80
2022-11-20T02:30:26.703Z,19.20
2022-11-20T02:32:54.364Z,15.75
2022-11-20T02:35:43.780Z,12.45
2022-11-20T02:38:12.441Z,14.15
2022-11-20T02:40:41.516Z,14.43
2022-11-20T02:43:09.474Z,17.02
2022-11-20T02:45:37.100Z,14.27
2022-11-20T02:48:04.936Z,18.70
2022-11-20T02:50:32.627Z,12.65
2022-11-20T02:53:00.244Z,13.20
2022-11-20T02:55:27.951Z,16.48
2022-11-20T02:57:56.984Z,19.60
2022-11-20T03:00:24.744Z,17.08
2022-11-20T03:02:52.369Z,13.88
2022-11-20T03:05:20.033Z,15.57
2022-11-20T03:07:47.651Z,13.48
2022-11-20T03:10:15.421Z,16.77
2022-11-20T03:12:43.060Z,19.83
2022-11-20T03:15:12.601Z,20.48
2022-11-20T03:17:40.317Z,17.60
2022-11-20T03:20:10.066Z,15.43
2022-11-20T03:22:37.788Z,13.45
2022-11-20T03:25:06.288Z,14.93
2022-11-20T03:27:35.798Z,16.65
2022-11-20T03:30:03.645Z,17.00
2022-11-20T03:32:32.656Z,13.63
2022-11-20T03:35:00.287Z,12.48
2022-11-20T03:37:27.957Z,16.88
2022-11-20T03:39:55.604Z,17.75
2022-11-20T03:42:45.946Z,16.67
2022-11-20T03:45:15.192Z,14.07
2022-11-20T03:47:44.479Z,17.33
2022-11-20T03:50:14.386Z,14.20
2022-11-20T03:52:42.446Z,11.80
2022-11-20T03:55:10.303Z,14.93
2022-11-20T03:57:37.935Z,15.85
2022-11-20T04:00:06.426Z,13.68
2022-11-20T04:02:34.114Z,18.30
2022-11-20T04:05:03.091Z,12.80
2022-11-20T04:07:30.720Z,11.55
2022-11-20T04:09:58.375Z,14.05
2022-11-20T04:12:26.015Z,15.25
2022-11-20T04:14:53.633Z,14.95
2022-11-20T04:17:23.802Z,14.43
2022-11-20T04:19:51.478Z,11.48
2022-11-20T04:22:20.536Z,13.32
2022-11-20T04:24:48.135Z,15.20
2022-11-20T04:27:15.732Z,14.32
2022-11-20T04:29:43.395Z,14.90
2022-11-20T04:32:11.247Z,15.35
2022-11-20T04:34:38.974Z,16.05
2022-11-20T04:37:06.585Z,13.57
2022-11-20T04:39:35.598Z,14.40
2022-11-20T04:42:20.640Z,14.95
2022-11-20T04:44:48.276Z,16.98
2022-11-20T04:47:15.912Z,15.15
2022-11-20T04:49:43.589Z,13.05
2022-11-20T04:52:11.333Z,17.00
2022-11-20T04:54:40.353Z,15.90
2022-11-20T04:57:14.097Z,13.18
2022-11-20T04:59:42.365Z,13.50
2022-11-20T05:02:10.160Z,12.82
2022-11-20T05:04:37.805Z,17.30
2022-11-20T05:07:05.540Z,18.23
2022-11-20T05:09:33.473Z,17.58
2022-11-20T05:12:02.504Z,13.60
2022-11-20T05:14:30.156Z,18.80
2022-11-20T05:16:57.920Z,14.35
2022-11-20T05:19:25.607Z,16.30
2022-11-20T05:21:53.351Z,15.48
2022-11-20T05:24:20.944Z,11.68
2022-11-20T05:26:48.598Z,14.27
2022-11-20T05:29:17.651Z,13.30
2022-11-20T05:31:45.316Z,15.93
2022-11-20T05:34:12.953Z,14.27
2022-11-20T05:36:40.561Z,13.73
2022-11-20T05:39:08.183Z,11.43
2022-11-20T05:41:35.845Z,12.75
2022-11-20T05:44:03.494Z,13.77
2022-11-20T05:46:32.554Z,18.10
2022-11-20T05:49:00.532Z,12.80
2022-11-20T05:51:28.858Z,12.13
2022-11-20T05:53:58.943Z,12.73
2022-11-20T05:56:26.683Z,15.13
2022-11-20T05:58:54.312Z,17.00
2022-11-20T06:01:24.143Z,14.57
2022-11-20T06:03:54.638Z,13.30
2022-11-20T06:06:22.949Z,19.20
2022-11-20T06:08:50.951Z,13.05
2022-11-20T06:11:19.264Z,12.40
2022-11-20T06:13:47.708Z,14.55
2022-11-20T06:16:18.241Z,19.15
2022-11-20T06:18:46.456Z,13.75
2022-11-20T06:21:17.123Z,13.27
2022-11-20T06:23:46.286Z,11.40
2022-11-20T06:26:16.747Z,12.23
2022-11-20T06:28:44.422Z,14.48
2022-11-20T06:31:14.356Z,16.75
2022-11-20T06:33:42.139Z,11.00
2022-11-20T06:36:11.405Z,15.93
2022-11-20T06:38:40.945Z,14.35
2022-11-20T06:41:09.434Z,14.85
2022-11-20T06:43:37.063Z,15.93
2022-11-20T06:46:04.970Z,14.88
2022-11-20T06:48:32.749Z,17.33
2022-11-20T06:51:00.986Z,12.60
2022-11-20T06:53:28.649Z,11.60
2022-11-20T06:55:59.527Z,14.45
2022-11-20T06:58:29.578Z,11.57
2022-11-20T07:01:00.580Z,10.27
2022-11-20T07:03:28.300Z,14.45
2022-11-20T07:05:57.075Z,14.10
2022-11-20T07:08:24.867Z,11.18
2022-11-20T07:10:52.839Z,12.98
2022-11-20T07:13:22.008Z,11.65
2022-11-20T07:15:49.643Z,20.02
2022-11-20T07:18:17.270Z,17.73
2022-11-20T07:20:44.929Z,18.02
2022-11-20T07:23:12.685Z,14.60
2022-11-20T07:25:40.336Z,13.48
2022-11-20T07:28:07.981Z,13.90
2022-11-20T07:30:36.989Z,14.10
2022-11-20T07:33:04.899Z,14.60
2022-11-20T07:35:32.972Z,17.25
2022-11-20T07:38:00.704Z,18.75
2022-11-20T07:40:28.394Z,12.85
2022-11-20T07:42:57.203Z,15.43
2022-11-20T07:47:55.018Z,13.80
2022-11-20T07:50:25.578Z,14.13
2022-11-20T07:52:53.462Z,13.15
2022-11-20T07:55:21.177Z,12.48
2022-11-20T07:57:56.416Z,15.13
2022-11-20T08:00:24.287Z,20.88
2022-11-20T08:02:51.970Z,19.80
2022-11-20T08:05:21.067Z,15.45
2022-11-20T08:07:48.762Z,18.60
2022-11-20T08:10:17.914Z,16.17
2022-11-20T08:13:04.010Z,20.67
2022-11-20T08:15:31.857Z,12.43
2022-11-20T08:18:29.326Z,16.15
2022-11-20T08:20:53.748Z,16.65
2022-11-20T08:23:25.216Z,23.10
2022-11-20T08:25:52.941Z,18.33
2022-11-20T08:28:22.071Z,15.07
2022-11-20T08:30:51.001Z,20.63
2022-11-20T08:35:47.229Z,22.00
2022-11-20T08:38:16.546Z,17.58
2022-11-20T08:41:05.310Z,15.50
2022-11-20T08:43:33.048Z,17.00
2022-11-20T08:46:00.729Z,20.45
2022-11-20T08:48:28.560Z,21.60
2022-11-20T08:50:59.865Z,20.92
2022-11-20T08:53:29.191Z,21.52
2022-11-20T08:55:58.565Z,23.58
2022-11-20T08:58:26.455Z,19.75
2022-11-20T09:00:54.228Z,21.30
2022-11-20T09:03:22.095Z,19.10
2022-11-20T09:05:49.829Z,18.38
2022-11-20T09:08:17.474Z,20.50
2022-11-20T09:10:46.463Z,22.23
2022-11-20T09:13:14.090Z,27.17
2022-11-20T09:15:41.732Z,23.55
2022-11-20T09:18:09.332Z,17.33
2022-11-20T09:20:37.089Z,22.85
2022-11-20T09:23:04.808Z,25.58
2022-11-20T09:25:32.484Z,29.45
2022-11-20T09:28:01.569Z,24.52
2022-11-20T09:30:29.775Z,26.90
2022-11-20T09:32:57.438Z,16.73
2022-11-20T09:35:25.275Z,19.13
2022-11-20T09:37:53.572Z,19.30
2022-11-20T09:40:23.707Z,20.65
2022-11-20T09:42:59.437Z,18.90
2022-11-20T09:45:40.221Z,22.38
2022-11-20T09:48:27.100Z,21.20
2022-11-20T09:51:00.757Z,23.55
2022-11-20T09:53:37.431Z,21.50
2022-11-20T09:56:06.788Z,21.25
2022-11-20T09:58:40.602Z,21.63
2022-11-20T10:01:14.291Z,21.15
2022-11-20T10:03:52.673Z,25.40
2022-11-20T10:06:26.427Z,22.17
2022-11-20T10:09:02.143Z,22.30
2022-11-20T10:11:40.818Z,25.70
2022-11-20T10:14:21.722Z,23.67
2022-11-20T10:17:02.364Z,21.60
2022-11-20T10:19:48.333Z,21.92
2022-11-20T10:22:33.471Z,21.23
2022-11-20T10:25:13.064Z,22.50
2022-11-20T10:27:54.703Z,23.00
2022-11-20T10:30:26.103Z,25.30
2022-11-20T10:33:00.544Z,24.42
2022-11-20T10:35:35.539Z,21.63
2022-11-20T10:38:07.504Z,21.80
2022-11-20T10:40:40.080Z,21.75
2022-11-20T10:43:15.994Z,26.20
2022-11-20T10:45:51.692Z,24.73
2022-11-20T10:48:23.523Z,25.55
2022-11-20T10:51:06.437Z,23.45
2022-11-20T10:53:47.948Z,25.75
2022-11-20T10:56:25.191Z,24.40
2022-11-20T10:59:06.706Z,24.23
2022-11-20T11:01:42.741Z,25.25
2022-11-20T11:04:25.826Z,25.42
2022-11-20T11:06:56.915Z,28.50
2022-11-20T11:09:32.225Z,30.95
2022-11-20T11:12:05.715Z,26.88
2022-11-20T11:14:44.465Z,30.83
2022-11-20T11:17:23.303Z,23.67
2022-11-20T11:20:01.470Z,27.15
2022-11-20T11:22:30.851Z,32.22
2022-11-20T11:24:58.493Z,22.65
2022-11-20T11:27:26.282Z,25.52
2022-11-20T11:30:05.227Z,30.23
2022-11-20T11:32:32.892Z,34.08
2022-11-20T11:35:03.072Z,36.85
2022-11-20T11:37:36.351Z,29.73
2022-11-20T11:40:23.467Z,28.15
2022-11-20T11:42:57.172Z,31.52
2022-11-20T11:45:24.737Z,30.95
2022-11-20T11:47:54.554Z,37.67
2022-11-20T11:50:25.587Z,35.80
2022-11-20T11:53:06.027Z,40.38
2022-11-20T11:55:38.977Z,37.75
2022-11-20T11:58:22.382Z,37.65
2022-11-20T12:00:56.993Z,38.13
2022-11-20T12:03:31.291Z,47.53
2022-11-20T12:06:07.384Z,45.63
2022-11-20T12:08:43.619Z,41.10
2022-11-20T12:11:17.323Z,40.63
2022-11-20T12:13:53.007Z,39.05
2022-11-20T12:16:22.752Z,35.13
2022-11-20T12:18:52.784Z,47.95
2022-11-20T12:21:30.308Z,38.53
2022-11-20T12:24:27.607Z,42.75
2022-11-20T12:27:07.347Z,49.05
2022-11-20T12:29:46.118Z,43.53
2022-11-20T12:32:47.139Z,45.90
2022-11-20T12:35:34.156Z,48.60
2022-11-20T12:38:25.554Z,37.15
2022-11-20T12:40:59.329Z,38.00
2022-11-20T12:43:47.384Z,43.63
2022-11-20T12:46:25.217Z,31.15
2022-11-20T12:52:44.159Z,34.60
2022-11-20T12:55:35.902Z,46.63
2022-11-20T12:58:14.905Z,48.67
2022-11-20T13:00:54.353Z,38.08
2022-11-20T13:03:41.307Z,36.78
2022-11-20T13:06:17.486Z,38.05
2022-11-20T13:08:50.519Z,39.65
2022-11-20T13:11:26.297Z,40.22
2022-11-20T13:14:12.494Z,40.15
2022-11-20T13:16:47.180Z,34.13
2022-11-20T13:19:17.821Z,47.78
2022-11-20T13:21:47.661Z,42.65
2022-11-20T13:24:27.344Z,40.67
2022-11-20T13:27:25.383Z,39.00
2022-11-20T13:30:14.587Z,37.85
2022-11-20T13:32:51.174Z,34.15
2022-11-20T13:35:29.039Z,46.15
2022-11-20T13:38:06.813Z,38.40
2022-11-20T13:40:35.605Z,37.55
2022-11-20T13:43:12.960Z,38.33
2022-11-20T13:45:40.889Z,39.65
2022-11-20T13:48:22.863Z,43.67
2022-11-20T13:51:01.916Z,45.67
2022-11-20T13:53:45.136Z,46.65
2022-11-20T13:56:24.125Z,45.72
2022-11-20T13:59:05.517Z,38.42
2022-11-20T14:01:35.683Z,40.33
2022-11-20T14:04:10.308Z,38.28
2022-11-20T14:06:44.623Z,36.58
2022-11-20T14:09:14.621Z,41.08
2022-11-20T14:11:49.793Z,38.35
2022-11-20T14:14:22.042Z,41.17
2022-11-20T14:16:51.028Z,42.80
2022-11-20T14:19:31.337Z,48.80
2022-11-20T14:22:11.472Z,43.88
2022-11-20T14:24:39.344Z,36.45
2022-11-20T14:27:07.398Z,41.35
2022-11-20T14:29:39.608Z,35.58
2022-11-20T14:32:07.566Z,42.42
2022-11-20T14:34:41.459Z,32.20
2022-11-20T14:37:17.018Z,34.78
2022-11-20T14:39:51.478Z,41.22
2022-11-20T14:42:20.709Z,34.55
2022-11-20T14:44:50.267Z,38.42
2022-11-20T14:47:22.365Z,36.45
2022-11-20T14:49:51.722Z,41.88
2022-11-20T14:52:21.632Z,35.05
2022-11-20T14:54:51.258Z,38.10
2022-11-20T14:57:27.326Z,40.38
2022-11-20T15:00:10.169Z,39.65
2022-11-20T15:02:41.501Z,36.03
2022-11-20T15:05:09.479Z,38.47
2022-11-20T15:07:41.090Z,43.33
2022-11-20T15:10:10.927Z,38.25
2022-11-20T15:12:42.262Z,45.92
2022-11-20T15:15:17.130Z,46.47
2022-11-20T15:17:44.925Z,46.40
2022-11-20T15:20:16.708Z,48.05
2022-11-20T15:22:44.380Z,44.35
2022-11-20T15:25:16.814Z,42.50
2022-11-20T15:27:45.457Z,49.85
2022-11-20T15:30:19.746Z,45.92
2022-11-20T15:32:48.132Z,40.10
2022-11-20T15:35:17.267Z,43.00
2022-11-20T15:37:45.042Z,46.40
2022-11-20T15:40:13.525Z,51.15
2022-11-20T15:45:33.019Z,45.13
2022-11-20T15:48:01.242Z,46.55
2022-11-20T15:50:35.957Z,50.45
2022-11-20T15:53:03.950Z,46.30
2022-11-20T15:55:32.442Z,48.10
2022-11-20T16:00:27.952Z,41.20
2022-11-20T16:02:57.194Z,47.33
2022-11-20T16:05:25.204Z,45.90
2022-11-20T16:07:53.135Z,43.20
2022-11-20T16:10:21.102Z,45.55
2022-11-20T16:13:06.252Z,43.30
2022-11-20T16:15:49.142Z,44.92
2022-11-20T16:18:21.187Z,46.67
2022-11-20T16:20:50.425Z,44.78
2022-11-20T16:23:18.872Z,55.17
2022-11-20T16:28:18.797Z,47.35
2022-11-20T16:30:47.073Z,48.92
2022-11-20T16:33:17.915Z,40.55
2022-11-20T16:35:47.046Z,47.20
2022-11-20T16:38:14.779Z,46.00
2022-11-20T16:40:42.477Z,44.33
2022-11-20T16:43:12.089Z,45.08
2022-11-20T16:45:43.884Z,40.88
2022-11-20T16:48:15.267Z,39.97
2022-11-20T16:50:52.394Z,40.88
2022-11-20T16:53:21.244Z,37.10
2022-11-20T16:55:49.302Z,39.38
2022-11-20T16:58:17.152Z,35.38
2022-11-20T17:00:51.226Z,38.10
2022-11-20T17:03:20.926Z,39.25
2022-11-20T17:05:50.118Z,39.65
2022-11-20T17:08:17.834Z,40.92
2022-11-20T17:10:45.606Z,38.15
2022-11-20T17:13:13.339Z,42.63
2022-11-20T17:15:41.143Z,43.85
2022-11-20T17:18:08.859Z,39.78
2022-11-20T17:20:36.582Z,47.53
2022-11-20T17:23:05.689Z,36.70
2022-11-20T17:25:34.592Z,41.90
2022-11-20T17:28:02.265Z,47.95
2022-11-20T17:30:29.940Z,35.95
2022-11-20T17:32:57.664Z,41.00
2022-11-20T17:35:25.415Z,35.88
2022-11-20T17:37:53.113Z,40.15
2022-11-20T17:40:27.143Z,43.83
2022-11-20T17:42:55.429Z,45.53
2022-11-20T17:45:23.144Z,44.25
2022-11-20T17:47:50.903Z,43.95
2022-11-20T17:50:18.737Z,42.70
2022-11-20T17:52:46.459Z,41.83
2022-11-20T17:55:14.131Z,40.08
2022-11-20T17:57:55.998Z,47.35
2022-11-20T18:00:25.211Z,40.50
2022-11-20T18:02:52.919Z,35.22
2022-11-20T18:05:20.593Z,40.22
2022-11-20T18:07:48.354Z,43.45
2022-11-20T18:10:16.165Z,40.88
2022-11-20T18:12:45.367Z,43.17
2022-11-20T18:15:13.036Z,43.60
2022-11-20T18:17:40.802Z,42.22
2022-11-20T18:22:58.377Z,39.05
2022-11-20T18:25:26.213Z,41.47
2022-11-20T18:27:55.812Z,38.83
2022-11-20T18:30:23.553Z,39.65
2022-11-20T18:32:51.337Z,36.03
2022-11-20T18:35:19.116Z,42.70
2022-11-20T18:37:46.805Z,29.75
2022-11-20T18:40:15.388Z,43.88
2022-11-20T18:43:00.753Z,43.05
2022-11-20T18:45:30.419Z,38.67
2022-11-20T18:47:58.108Z,39.10
2022-11-20T18:50:25.864Z,39.38
2022-11-20T18:52:53.645Z,37.95
2022-11-20T18:55:24.296Z,32.47
2022-11-20T18:57:52.657Z,35.08
2022-11-20T19:00:20.689Z,32.22
2022-11-20T19:02:49.794Z,31.20
2022-11-20T19:05:17.609Z,33.55
2022-11-20T19:07:45.441Z,33.67
2022-11-20T19:10:13.256Z,31.33
2022-11-20T19:12:40.988Z,35.88
2022-11-20T19:15:09.022Z,41.80
2022-11-20T19:17:36.762Z,35.13
2022-11-20T19:20:06.621Z,40.35
2022-11-20T19:22:34.400Z,38.25
2022-11-20T19:25:02.353Z,34.70
2022-11-20T19:27:30.207Z,35.33
2022-11-20T19:30:03.271Z,34.88
2022-11-20T19:32:31.413Z,38.53
2022-11-20T19:34:59.249Z,32.72
2022-11-20T19:37:28.518Z,42.13
2022-11-20T19:39:59.678Z,40.22
2022-11-20T19:42:27.543Z,40.10
2022-11-20T19:44:55.389Z,36.22
2022-11-20T19:47:35.387Z,31.90
2022-11-20T19:50:11.617Z,34.60
2022-11-20T19:52:40.932Z,38.83
2022-11-20T19:55:10.124Z,34.08
2022-11-20T19:57:37.971Z,30.60
2022-11-20T20:00:06.701Z,32.92
2022-11-20T20:02:34.541Z,38.97
2022-11-20T20:05:02.398Z,38.00
2022-11-20T20:07:30.336Z,32.17
2022-11-20T20:09:59.659Z,34.30
2022-11-20T20:12:27.515Z,30.08
2022-11-20T20:14:55.384Z,29.55
2022-11-20T20:17:23.260Z,34.17
2022-11-20T20:19:51.066Z,31.98
2022-11-20T20:22:18.911Z,31.35
2022-11-20T20:24:46.738Z,30.83
2022-11-20T20:27:15.963Z,35.65
2022-11-20T20:29:43.840Z,33.25
2022-11-20T20:32:11.642Z,34.72
2022-11-20T20:34:39.416Z,37.97
2022-11-20T20:37:07.176Z,38.25
2022-11-20T20:39:34.998Z,31.50
2022-11-20T20:42:03.040Z,34.42
2022-11-20T20:44:49.697Z,39.60
2022-11-20T20:47:17.562Z,39.55
2022-11-20T20:49:45.424Z,35.03
2022-11-20T20:52:13.258Z,31.27
2022-11-20T20:54:42.353Z,36.05
2022-11-20T20:57:10.159Z,33.92
2022-11-20T20:59:39.403Z,28.20
2022-11-20T21:02:07.293Z,33.53
2022-11-20T21:04:35.224Z,36.13
2022-11-20T21:07:03.028Z,35.13
2022-11-20T21:09:31.061Z,36.20
2022-11-20T21:11:58.916Z,39.30
2022-11-20T21:17:14.998Z,44.40
2022-11-20T21:19:43.264Z,34.78
2022-11-20T21:22:09.938Z,33.63
2022-11-20T21:24:37.834Z,34.85
2022-11-20T21:27:06.983Z,37.58
2022-11-20T21:29:34.770Z,34.60
2022-11-20T21:32:02.535Z,40.70
2022-11-20T21:34:31.917Z,34.55
2022-11-20T21:36:59.631Z,34.10
2022-11-20T21:39:27.316Z,33.13
2022-11-20T21:41:55.046Z,34.55
2022-11-20T21:44:31.417Z,35.75
2022-11-20T21:47:09.677Z,36.60
2022-11-20T21:49:40.335Z,34.70
2022-11-20T21:52:08.060Z,35.78
2022-11-20T21:54:36.654Z,24.52
2022-11-20T21:57:04.557Z,30.25
2022-11-20T21:59:32.325Z,33.45
2022-11-20T22:02:00.036Z,41.03
2022-11-20T22:04:27.800Z,42.47
2022-11-20T22:06:57.023Z,39.47
2022-11-20T22:09:24.872Z,35.95
2022-11-20T22:11:52.661Z,41.75
2022-11-20T22:14:22.794Z,45.33
2022-11-20T22:16:52.770Z,37.78
2022-11-20T22:19:22.153Z,41.05
2022-11-20T22:21:50.640Z,39.03
2022-11-20T22:24:21.483Z,39.67
2022-11-20T22:26:49.562Z,37.75
2022-11-20T22:29:18.862Z,36.65
2022-11-20T22:31:46.610Z,37.60
2022-11-20T22:34:14.921Z,45.42
2022-11-20T22:36:42.722Z,34.10
2022-11-20T22:39:10.692Z,50.55
2022-11-20T22:41:39.877Z,41.47
2022-11-20T22:44:09.075Z,39.80
2022-11-20T22:46:38.193Z,45.13
2022-11-20T22:49:08.471Z,47.15
2022-11-20T22:51:37.773Z,43.17
2022-11-20T22:54:06.217Z,41.22
2022-11-20T22:59:04.145Z,38.40
2022-11-20T23:01:33.610Z,38.45
2022-11-20T23:04:03.801Z,42.00
2022-11-20T23:06:34.136Z,45.42
2022-11-20T23:09:02.319Z,42.28
2022-11-20T23:11:32.084Z,41.58
2022-11-20T23:14:01.473Z,42.05
2022-11-20T23:16:32.379Z,44.20
2022-11-20T23:19:02.149Z,36.55
2022-11-20T23:21:29.876Z,36.30
2022-11-20T23:23:59.079Z,43.30
2022-11-20T23:26:28.524Z,42.53
2022-11-20T23:28:58.925Z,43.13
2022-11-20T23:31:27.977Z,44.17
2022-11-20T23:33:57.142Z,43.25
2022-11-20T23:36:25.240Z,42.20
2022-11-20T23:38:52.935Z,46.83
2022-11-20T23:41:20.774Z,49.10
2022-11-20T23:43:48.517Z,40.00
2022-11-20T23:46:17.094Z,39.80
2022-11-20T23:48:45.985Z,41.83
2022-11-20T23:51:15.623Z,41.78
2022-11-20T23:53:43.664Z,44.78
2022-11-20T23:56:14.322Z,39.53
2022-11-20T23:58:42.362Z,32.83
